Time;durP1;ratioP1;P1;durP2;ratioP2;P2;SDS_P1;SDS_P2;PMS_P1;PMS_P2;Temp;Humidity;BMP_temperature;BMP_pressure;BME280_temperature;BME280_humidity;BME280_pressure;Samples;Min_cycle;Max_cycle;Signal;HPM_P1;HPM_P2
2021/09/12 00:02:19;;;;;;;8.80;8.03;;;18.20;89.90;;;17.46;87.56;98145.63;5058602;28;21015;-82
2021/09/12 00:04:45;;;;;;;9.50;8.70;;;18.30;89.70;;;17.40;87.77;98154.84;5057193;28;20529;-81
2021/09/12 00:07:14;;;;;;;9.43;8.63;;;18.20;89.80;;;17.28;88.31;98144.91;5056600;28;20511;-82
2021/09/12 00:09:42;;;;;;;8.67;7.97;;;18.20;90.10;;;17.23;89.56;98146.75;5055877;28;20947;-83
2021/09/12 00:12:13;;;;;;;9.50;8.70;;;18.20;90.50;;;16.97;89.39;98105.47;5053351;28;20460;-84
2021/09/12 00:14:42;;;;;;;9.53;8.73;;;18.10;90.40;;;17.14;88.89;98132.72;5042972;28;20952;-83
2021/09/12 00:17:09;;;;;;;9.10;8.37;;;18.10;90.30;;;17.24;88.97;98148.38;5056592;28;20485;-83
2021/09/12 00:19:36;;;;;;;7.70;7.10;;;18.10;90.40;;;17.25;89.75;98150.03;5073416;28;20545;-83
2021/09/12 00:22:05;;;;;;;8.90;8.20;;;18.10;90.80;;;17.17;89.31;98131.41;5057289;28;20462;-83
2021/09/12 00:24:34;;;;;;;10.00;9.13;;;18.10;90.70;;;17.26;90.31;98141.59;5039347;28;20462;-83
2021/09/12 00:27:01;;;;;;;9.10;8.30;;;18.10;91.00;;;17.23;89.69;98130.38;5058428;28;21066;-83
2021/09/12 00:29:29;;;;;;;8.70;8.00;;;18.20;90.90;;;17.27;89.54;98140.53;5061300;28;20453;-83
2021/09/12 00:31:57;;;;;;;8.40;7.70;;;18.20;90.80;;;17.33;88.00;98129.66;5061456;28;20833;-83
2021/09/12 00:34:24;;;;;;;7.83;7.23;;;18.20;90.20;;;17.26;89.24;98138.88;5054957;28;20450;-83
2021/09/12 00:36:52;;;;;;;8.90;8.20;;;18.20;90.60;;;17.22;90.06;98140.47;5035458;28;20499;-83
2021/09/12 00:39:19;;;;;;;8.23;7.53;;;18.10;90.70;;;17.20;89.75;98137.16;5054918;28;20486;-83
2021/09/12 00:41:49;;;;;;;9.70;8.90;;;18.10;90.80;;;17.25;89.31;98134.50;5053445;28;20468;-84
2021/09/12 00:44:16;;;;;;;9.00;8.30;;;18.10;90.70;;;17.26;89.45;98136.13;5023028;28;21317;-84
2021/09/12 00:46:48;;;;;;;8.67;7.80;;;18.10;90.80;;;17.25;88.75;98123.56;5061425;28;20446;-83
2021/09/12 00:49:16;;;;;;;8.27;7.67;;;18.10;90.30;;;17.11;90.64;98127.78;5070531;28;20449;-82
2021/09/12 00:51:44;;;;;;;9.00;8.30;;;18.10;91.10;;;16.97;91.21;98119.13;5038920;28;20500;-84
2021/09/12 00:54:12;;;;;;;8.30;7.67;;;18.00;91.60;;;16.92;91.29;98109.00;5054055;28;20451;-84
2021/09/12 00:56:42;;;;;;;8.83;8.13;;;18.00;91.80;;;16.98;90.31;98113.41;5054920;28;20467;-83
2021/09/12 00:59:15;;;;;;;9.20;8.50;;;18.00;91.20;;;17.03;90.85;98130.94;5057794;28;20453;-84
2021/09/12 01:01:45;;;;;;;8.50;7.70;;;18.00;91.50;;;16.98;91.10;98132.53;5051636;28;20512;-85
2021/09/12 01:04:14;;;;;;;9.13;8.33;;;17.90;91.80;;;16.90;90.98;98111.13;5056891;28;20869;-84
2021/09/12 01:06:46;;;;;;;9.53;8.83;;;17.90;91.40;;;17.00;90.64;98121.38;5053134;28;20457;-84
2021/09/12 01:09:20;;;;;;;8.40;7.80;;;18.00;91.50;;;16.99;90.48;98125.19;5055188;28;20465;-85
2021/09/12 01:11:50;;;;;;;9.70;9.00;;;17.90;91.20;;;17.01;90.42;98127.66;5055140;28;20456;-83
2021/09/12 01:14:23;;;;;;;8.90;8.20;;;17.90;91.30;;;16.85;90.47;98114.63;5039166;28;20477;-82
2021/09/12 01:16:50;;;;;;;9.93;9.03;;;17.90;91.40;;;16.81;91.36;98118.13;5059957;28;20497;-82
2021/09/12 01:19:18;;;;;;;9.83;9.10;;;17.80;91.70;;;16.82;92.25;98125.22;5064692;28;20450;-84
2021/09/12 01:21:47;;;;;;;9.40;8.70;;;17.80;92.30;;;16.76;91.73;98123.53;5065834;28;20530;-85
2021/09/12 01:24:16;;;;;;;9.80;8.90;;;17.70;91.90;;;16.73;91.78;98122.13;5087766;28;20461;-83
2021/09/12 01:26:43;;;;;;;9.97;9.10;;;17.70;92.10;;;16.86;91.55;98123.63;5058995;28;20553;-83
2021/09/12 01:29:15;;;;;;;10.23;9.23;;;17.70;92.30;;;16.84;91.16;98120.34;5050416;28;20990;-83
2021/09/12 01:31:42;;;;;;;9.20;8.50;;;17.70;91.90;;;16.75;92.17;98119.97;5056958;28;20454;-85
2021/09/12 01:34:13;;;;;;;9.77;9.00;;;17.70;92.40;;;16.81;91.92;98129.03;5059464;28;20465;-84
2021/09/12 01:36:43;;;;;;;9.30;8.50;;;17.70;92.30;;;16.55;92.32;98076.88;5053259;28;20461;-83
2021/09/12 01:39:14;;;;;;;10.60;9.60;;;17.70;92.70;;;16.80;92.05;98122.75;5055903;28;20472;-84
2021/09/12 01:41:42;;;;;;;9.40;8.43;;;17.70;92.40;;;16.80;91.66;98114.56;5052382;28;20518;-84
2021/09/12 01:44:09;;;;;;;8.90;8.20;;;17.70;92.20;;;16.69;91.85;98113.59;5058323;28;20493;-84
2021/09/12 01:46:38;;;;;;;9.67;8.87;;;17.70;92.20;;;16.61;92.18;98108.59;5077188;28;20466;-84
2021/09/12 01:49:08;;;;;;;11.10;8.97;;;17.60;92.20;;;16.51;92.33;98106.53;5061679;28;20500;-85
2021/09/12 01:51:36;;;;;;;10.30;9.30;;;17.50;92.40;;;16.33;93.21;98099.50;5066079;28;20458;-85
2021/09/12 01:54:04;;;;;;;10.53;9.63;;;17.50;92.70;;;16.18;93.87;98093.84;5078741;28;20462;-84
2021/09/12 01:56:35;;;;;;;9.03;8.10;;;17.30;92.90;;;16.14;94.48;98107.13;5072539;28;20811;-84
2021/09/12 01:59:06;;;;;;;10.10;9.20;;;17.20;93.60;;;16.08;95.75;98111.66;5063248;28;20453;-84
2021/09/12 02:01:35;;;;;;;9.50;8.70;;;17.10;94.50;;;15.89;95.82;98100.19;5060901;28;20462;-84
2021/09/12 02:04:03;;;;;;;10.50;9.60;;;17.10;94.60;;;15.71;96.34;98074.03;5053241;28;20461;-85
2021/09/12 02:06:30;;;;;;;11.33;10.23;;;16.90;94.90;;;15.86;96.42;98106.97;5060543;28;20465;-84
2021/09/12 02:08:58;;;;;;;10.50;9.60;;;16.90;95.10;;;15.90;96.35;98111.94;5056001;28;20442;-83
2021/09/12 02:11:25;;;;;;;11.33;10.33;;;16.90;95.50;;;15.96;96.22;98108.19;5071275;28;20953;-85
2021/09/12 02:13:55;;;;;;;10.57;9.67;;;16.90;95.70;;;15.98;96.53;98116.94;5044855;28;20552;-84
2021/09/12 02:16:40;;;;;;;10.50;9.70;;;16.90;95.80;;;15.88;96.74;98112.13;5049047;28;20458;-83
2021/09/12 02:19:07;;;;;;;11.60;10.70;;;16.90;95.80;;;15.82;97.17;98113.94;5057325;28;20461;-84
2021/09/12 02:21:37;;;;;;;11.90;10.80;;;16.80;95.90;;;15.83;97.68;98115.59;5056251;28;20489;-85
2021/09/12 02:24:05;;;;;;;12.40;11.30;;;16.80;96.40;;;16.03;97.06;98108.88;5058901;28;20454;-84
2021/09/12 02:26:33;;;;;;;11.50;10.53;;;16.90;96.80;;;16.11;96.26;98119.34;5073348;28;20474;-83
2021/09/12 02:29:01;;;;;;;12.63;10.90;;;17.00;96.20;;;16.10;96.81;98111.44;5043661;28;20476;-82
2021/09/12 02:31:29;;;;;;;11.40;10.50;;;17.00;96.20;;;16.08;95.92;98091.78;5058486;28;20811;-84
2021/09/12 02:33:58;;;;;;;11.20;10.30;;;17.10;95.90;;;16.30;95.40;98108.16;5025651;28;20516;-84
2021/09/12 02:36:26;;;;;;;11.57;10.50;;;17.20;95.60;;;16.37;95.95;98117.00;5073198;28;20802;-83
2021/09/12 02:38:53;;;;;;;11.10;10.03;;;17.30;95.90;;;16.46;94.92;98116.59;5060319;28;20500;-84
2021/09/12 02:41:21;;;;;;;13.43;10.40;;;17.30;95.00;;;16.59;93.94;98110.72;5057906;28;20449;-82
2021/09/12 02:43:48;;;;;;;10.37;9.53;;;17.40;94.70;;;16.46;94.09;98100.22;5056215;28;20466;-84
2021/09/12 02:46:15;;;;;;;11.47;10.50;;;17.40;94.50;;;16.52;94.42;98118.28;5077352;28;20491;-85
2021/09/12 02:48:42;;;;;;;11.27;10.37;;;17.40;94.60;;;16.61;93.74;98111.34;5047374;28;20882;-84
2021/09/12 02:51:11;;;;;;;12.50;11.30;;;17.50;94.40;;;16.70;93.38;98112.53;5067704;28;20500;-84
2021/09/12 02:53:38;;;;;;;13.17;12.00;;;17.50;93.90;;;16.46;93.12;98068.31;5068072;28;20461;-83
2021/09/12 02:56:06;;;;;;;11.70;10.60;;;17.60;93.60;;;16.56;92.55;98079.34;5063534;28;20492;-83
2021/09/12 02:58:35;;;;;;;12.10;10.93;;;17.60;93.40;;;16.66;93.26;98108.66;5066072;28;20505;-83
2021/09/12 03:01:02;;;;;;;12.40;11.30;;;17.60;93.40;;;16.70;93.35;98109.81;5058662;28;21001;-83
2021/09/12 03:03:29;;;;;;;11.27;10.17;;;17.60;93.80;;;16.63;93.17;98095.53;5062454;28;20472;-84
2021/09/12 03:05:58;;;;;;;10.80;9.90;;;17.60;93.40;;;16.53;93.91;98095.41;5065208;28;20457;-84
2021/09/12 03:16:32;;;;;;;11.53;10.53;;;17.60;94.20;;;16.46;94.38;98078.41;5033967;28;20499;-82
2021/09/12 03:19:00;;;;;;;11.77;10.80;;;17.50;94.20;;;16.68;93.86;98106.50;5051627;28;20501;-82
2021/09/12 03:21:29;;;;;;;12.07;10.97;;;17.60;94.00;;;16.61;93.74;98094.97;5049278;28;20522;-85
2021/09/12 03:23:57;;;;;;;13.20;12.00;;;17.60;94.10;;;16.57;93.72;98096.53;5050728;28;20492;-81
2021/09/12 03:26:26;;;;;;;12.17;11.03;;;17.60;93.80;;;16.58;93.95;98098.19;5054143;28;20466;-83
2021/09/12 03:28:53;;;;;;;14.50;12.00;;;17.50;93.80;;;16.71;92.99;98097.81;5039388;28;20953;-83
2021/09/12 03:31:21;;;;;;;12.87;11.40;;;17.50;93.50;;;16.54;93.55;98097.88;5037987;28;20848;-83
2021/09/12 03:33:51;;;;;;;13.57;11.30;;;17.50;93.60;;;16.40;94.31;98091.94;5038635;28;20468;-82
2021/09/12 03:36:18;;;;;;;12.50;11.50;;;17.40;93.60;;;16.32;94.67;98097.84;5036597;28;20470;-83
2021/09/12 03:38:48;;;;;;;12.27;11.07;;;17.30;94.10;;;16.42;93.96;98089.78;5039263;28;20509;-82
2021/09/12 03:41:15;;;;;;;12.70;11.50;;;17.40;94.00;;;16.21;94.81;98094.13;5039895;28;20459;-83
2021/09/12 03:43:42;;;;;;;14.30;12.93;;;17.20;94.20;;;16.19;95.72;98092.75;5027987;28;20961;-83
2021/09/12 03:46:09;;;;;;;12.23;10.90;;;17.20;94.90;;;16.12;96.07;98092.94;5029954;28;20470;-83
2021/09/12 03:48:36;;;;;;;12.17;10.97;;;17.10;95.10;;;15.93;96.70;98085.03;5044592;28;20516;-83
2021/09/12 03:51:05;;;;;;;13.40;12.20;;;17.00;95.50;;;15.94;97.22;98091.28;5055824;28;21026;-82
2021/09/12 03:53:33;;;;;;;12.90;11.60;;;17.00;96.00;;;15.92;97.69;98090.72;5041571;28;20457;-83
2021/09/12 03:56:01;;;;;;;13.20;11.90;;;17.00;96.90;;;15.98;97.60;98089.69;5052078;28;20797;-80
2021/09/12 03:58:28;;;;;;;11.60;10.50;;;16.90;96.90;;;15.95;98.00;98079.31;5036540;28;20557;-83
2021/09/12 04:00:57;;;;;;;13.00;11.90;;;17.00;97.50;;;15.93;98.46;98087.75;5017011;28;20462;-83
2021/09/12 04:03:25;;;;;;;15.60;14.10;;;16.90;97.80;;;15.93;98.12;98087.75;5039709;28;20500;-85
2021/09/12 04:05:52;;;;;;;13.10;12.00;;;16.90;97.30;;;15.90;97.74;98084.69;5037792;28;20558;-84
2021/09/12 04:08:21;;;;;;;14.23;11.80;;;16.90;97.00;;;15.81;98.54;98079.63;5019337;28;20471;-83
2021/09/12 04:10:49;;;;;;;14.10;12.70;;;16.90;97.60;;;15.72;98.54;98092.81;5018872;28;20551;-84
2021/09/12 04:13:17;;;;;;;14.73;13.33;;;16.80;97.50;;;15.67;98.88;98086.47;5034092;28;20462;-84
2021/09/12 04:15:52;;;;;;;15.03;13.63;;;16.70;98.00;;;15.51;99.71;98071.78;5052230;28;20489;-84
2021/09/12 04:18:26;;;;;;;14.00;12.70;;;16.70;99.20;;;15.35;100.00;98065.22;5047891;28;20479;-82
2021/09/12 04:23:38;;;;;;;15.73;14.07;;;16.50;99.40;;;15.38;100.00;98092.78;5037460;28;20482;-83
2021/09/12 04:26:08;;;;;;;14.77;13.37;;;16.40;99.90;;;15.39;100.00;98099.06;5015008;28;20828;-83
2021/09/12 04:28:36;;;;;;;15.50;13.93;;;16.40;99.90;;;15.26;100.00;98090.16;5050041;28;20692;-85
2021/09/12 04:31:03;;;;;;;15.70;14.30;;;16.40;99.90;;;15.17;100.00;98102.47;5031824;28;20486;-83
2021/09/12 04:33:30;;;;;;;17.10;15.40;;;16.30;99.90;;;15.03;100.00;98093.78;5032029;28;20517;-83
2021/09/12 04:35:58;;;;;;;16.23;14.73;;;16.20;99.90;;;15.09;100.00;98105.56;5019636;28;20461;-84
2021/09/12 04:38:25;;;;;;;15.97;13.90;;;16.20;99.90;;;14.94;100.00;98096.09;5031553;28;20977;-84
2021/09/12 04:41:01;;;;;;;15.03;13.73;;;16.10;99.90;;;14.99;100.00;98107.06;5051732;28;20505;-84
2021/09/12 04:43:45;;;;;;;15.97;14.50;;;16.10;99.90;;;14.95;100.00;98115.94;5038933;28;21295;-84
2021/09/12 04:46:14;;;;;;;16.83;15.30;;;16.00;99.90;;;14.91;100.00;98115.59;5041012;28;20473;-84
2021/09/12 04:48:44;;;;;;;15.60;14.07;;;16.00;99.90;;;14.87;100.00;98109.81;5015139;28;20454;-84
2021/09/12 04:51:11;;;;;;;16.97;15.27;;;15.90;99.90;;;15.15;100.00;98089.09;5015507;28;20450;-84
2021/09/12 04:53:38;;;;;;;15.90;14.23;;;16.00;99.90;;;15.05;100.00;98109.84;5032530;28;20554;-84
2021/09/12 04:56:07;;;;;;;20.17;16.00;;;16.10;99.90;;;14.93;100.00;98078.06;5035243;28;20494;-85
2021/09/12 04:58:35;;;;;;;17.60;16.00;;;16.10;99.90;;;14.91;100.00;98110.13;5048280;28;20497;-84
2021/09/12 05:01:04;;;;;;;19.40;17.30;;;16.00;99.90;;;14.91;100.00;98120.22;5045259;28;20541;-84
2021/09/12 05:03:31;;;;;;;16.30;14.80;;;15.90;99.90;;;14.86;100.00;98118.22;5036331;28;20473;-84
2021/09/12 05:05:58;;;;;;;17.23;15.53;;;15.90;99.90;;;14.80;100.00;98116.47;5046187;28;20461;-83
2021/09/12 05:08:26;;;;;;;17.97;16.07;;;15.90;99.90;;;14.66;100.00;98108.53;5033932;28;20482;-81
2021/09/12 05:10:54;;;;;;;17.07;15.27;;;15.80;99.90;;;14.58;100.00;98092.59;5034893;28;20478;-83
2021/09/12 05:13:23;;;;;;;18.73;16.63;;;15.80;99.90;;;14.94;100.00;98123.28;5066901;28;20461;-85
2021/09/12 05:15:50;;;;;;;18.10;16.40;;;15.90;99.90;;;15.13;100.00;98107.56;5037139;28;20851;-83
2021/09/12 05:18:21;;;;;;;17.43;15.83;;;16.10;99.90;;;15.42;100.00;98125.81;5041938;28;20524;-83
2021/09/12 05:20:50;;;;;;;18.50;16.60;;;16.20;99.90;;;15.62;100.00;98119.06;5038580;28;20485;-84
2021/09/12 05:23:18;;;;;;;17.20;15.50;;;16.40;99.90;;;15.69;100.00;98097.94;5039951;28;20893;-82
2021/09/12 05:25:45;;;;;;;18.20;16.30;;;16.60;99.90;;;16.21;98.77;98132.28;5052145;28;20462;-80
2021/09/12 05:28:12;;;;;;;18.50;16.77;;;16.80;99.90;;;16.45;95.98;98120.34;5042704;28;20450;-80
2021/09/12 05:30:40;;;;;;;15.70;14.20;;;17.10;97.00;;;16.48;95.67;98119.88;5037649;28;20493;-82
2021/09/12 05:33:08;;;;;;;16.53;14.93;;;17.20;96.20;;;16.51;95.56;98127.56;5033506;28;20472;-82
2021/09/12 05:35:38;;;;;;;17.37;15.57;;;17.30;95.80;;;16.41;95.40;98095.53;5021107;28;20490;-80
2021/09/12 05:38:07;;;;;;;18.07;14.37;;;17.40;95.50;;;16.51;96.34;98124.81;5031919;28;20489;-82
2021/09/12 05:40:37;;;;;;;14.90;13.60;;;17.40;96.30;;;16.66;95.07;98122.31;5041693;28;20512;-79
2021/09/12 05:43:04;;;;;;;14.83;13.43;;;17.40;95.30;;;17.02;91.86;98134.75;5057826;28;20863;-82
2021/09/12 05:45:31;;;;;;;16.87;15.27;;;17.60;93.40;;;17.03;91.34;98130.94;5036846;28;20802;-82
2021/09/12 05:48:02;;;;;;;15.83;14.43;;;17.80;92.90;;;16.95;92.43;98141.22;5044871;28;20489;-82
2021/09/12 05:50:30;;;;;;;20.33;15.63;;;17.70;93.30;;;17.30;90.42;98141.09;5045715;28;20522;-81
2021/09/12 05:52:57;;;;;;;19.20;17.33;;;17.90;92.50;;;17.21;88.53;98106.06;5063019;28;20459;-82
2021/09/12 05:55:31;;;;;;;19.13;17.30;;;18.10;91.50;;;17.31;89.22;98127.19;5038470;28;20455;-86
2021/09/12 05:57:59;;;;;;;17.43;15.83;;;18.10;91.40;;;17.25;88.99;98120.84;5041842;28;20947;-79
2021/09/12 06:00:28;;;;;;;18.47;16.60;;;18.10;91.40;;;17.41;88.59;98143.66;5048388;28;20490;-79
2021/09/12 06:02:55;;;;;;;16.23;14.53;;;18.20;91.20;;;17.31;89.06;98131.81;5038759;28;20635;-81
2021/09/12 06:05:24;;;;;;;16.20;14.50;;;18.10;91.30;;;17.29;90.08;98145.75;5038930;28;20536;-81
2021/09/12 06:07:51;;;;;;;15.50;13.90;;;18.10;91.40;;;17.31;90.29;98148.19;5044620;28;20454;-79
2021/09/12 06:10:18;;;;;;;19.50;17.37;;;18.10;91.60;;;17.53;87.71;98146.25;5039377;28;20449;-81
2021/09/12 06:12:45;;;;;;;17.20;15.50;;;18.30;90.80;;;17.44;87.70;98130.56;5039509;28;20466;-80
2021/09/12 06:15:13;;;;;;;18.90;17.00;;;18.30;90.50;;;17.64;86.76;98151.81;5038303;28;20482;-80
2021/09/12 06:17:40;;;;;;;18.60;16.30;;;18.40;90.20;;;17.64;86.71;98149.06;5022938;28;20474;-81
2021/09/12 06:20:09;;;;;;;22.47;16.10;;;18.40;90.20;;;17.56;86.72;98144.91;5032124;28;20481;-82
2021/09/12 06:22:43;;;;;;;18.87;16.97;;;18.40;90.00;;;17.29;88.52;98151.19;5060879;28;20500;-85
2021/09/12 06:25:11;;;;;;;19.37;17.47;;;18.30;90.10;;;17.21;88.86;98152.47;5034603;28;20477;-85
2021/09/12 06:27:39;;;;;;;21.73;17.57;;;18.30;90.10;;;17.32;88.56;98155.31;5036015;28;20952;-84
2021/09/12 06:30:10;;;;;;;20.47;18.37;;;18.30;90.20;;;17.31;88.43;98143.56;5051596;28;20465;-85
2021/09/12 06:32:37;;;;;;;22.90;20.47;;;18.30;90.20;;;17.20;88.83;98141.81;5045463;28;20624;-86
2021/09/12 06:35:14;;;;;;;25.40;19.70;;;18.30;90.10;;;17.19;89.10;98135.50;5041491;28;20973;-84
2021/09/12 06:37:46;;;;;;;23.70;19.90;;;18.30;90.30;;;17.17;89.40;98151.31;5039383;28;20465;-83
2021/09/12 06:40:18;;;;;;;22.40;19.77;;;18.20;90.30;;;17.42;88.10;98150.78;5039077;28;20463;-82
2021/09/12 06:42:46;;;;;;;21.93;19.73;;;18.30;90.20;;;17.31;88.88;98149.03;5041575;28;20463;-80
2021/09/12 06:45:15;;;;;;;20.60;17.50;;;18.30;90.30;;;17.34;88.89;98148.50;5038227;28;20458;-83
2021/09/12 06:47:42;;;;;;;21.80;19.60;;;18.30;90.20;;;17.60;87.73;98150.69;5035067;28;20459;-80
2021/09/12 06:50:11;;;;;;;21.40;19.17;;;18.40;90.30;;;17.88;86.87;98135.09;5035591;28;20455;-82
2021/09/12 06:52:38;;;;;;;23.30;20.53;;;18.60;90.20;;;18.00;85.65;98130.28;5039194;28;20536;-83
2021/09/12 06:55:08;;;;;;;23.60;20.90;;;18.80;89.50;;;18.24;84.20;98138.13;5038997;28;20456;-81
2021/09/12 06:57:35;;;;;;;23.70;21.00;;;18.90;88.60;;;18.30;83.70;98152.66;5038615;28;20477;-83
2021/09/12 07:00:05;;;;;;;22.73;19.93;;;19.00;87.90;;;17.88;85.36;98144.09;5023971;28;20549;-85
2021/09/12 07:02:33;;;;;;;24.30;21.80;;;18.90;87.70;;;17.79;86.12;98149.22;5041488;28;20797;-83
2021/09/12 07:05:00;;;;;;;22.50;20.10;;;18.80;88.00;;;17.73;86.29;98147.53;5041038;28;20461;-82
2021/09/12 07:07:27;;;;;;;23.07;20.53;;;18.80;88.30;;;17.58;87.10;98148.19;5036819;28;20457;-81
2021/09/12 07:09:54;;;;;;;24.00;21.40;;;18.70;88.40;;;17.62;87.00;98162.16;5036203;28;20451;-83
2021/09/12 07:12:25;;;;;;;25.20;22.40;;;18.70;88.50;;;17.53;87.14;98150.88;5038532;28;20536;-81
2021/09/12 07:14:54;;;;;;;24.27;21.70;;;18.60;88.70;;;17.51;87.29;98167.50;5032963;28;20475;-81
2021/09/12 07:17:21;;;;;;;25.03;22.20;;;18.60;88.90;;;17.34;87.71;98147.66;5037479;28;20517;-83
2021/09/12 07:19:48;;;;;;;28.47;22.60;;;18.50;89.20;;;17.66;86.88;98164.13;5035811;28;20473;-87
2021/09/12 07:22:15;;;;;;;25.73;20.33;;;18.50;88.90;;;17.56;86.63;98173.06;5036808;28;20586;-85
2021/09/12 07:24:42;;;;;;;22.57;19.50;;;18.60;88.50;;;17.61;85.31;98125.00;5036398;28;20485;-84
2021/09/12 07:27:09;;;;;;;22.80;19.10;;;18.70;88.30;;;17.90;85.24;98166.53;5030798;28;20455;-83
2021/09/12 07:29:40;;;;;;;21.30;18.97;;;18.80;87.70;;;18.22;83.45;98167.63;5039400;28;20454;-83
2021/09/12 07:32:09;;;;;;;21.37;18.60;;;19.00;87.10;;;18.46;82.09;98172.72;5016270;28;21072;-83
2021/09/12 07:34:36;;;;;;;22.87;20.43;;;19.30;86.40;;;18.63;81.37;98172.53;5054305;28;20453;-83
2021/09/12 07:37:12;;;;;;;23.37;18.60;;;19.40;86.00;;;18.14;83.58;98176.34;5037667;28;20457;-84
2021/09/12 07:39:39;;;;;;;23.80;20.13;;;19.20;85.80;;;18.18;83.66;98180.19;5034345;28;20463;-80
2021/09/12 07:42:08;;;;;;;23.73;19.50;;;19.10;86.10;;;17.50;85.65;98173.25;5017996;28;20554;-85
2021/09/12 07:44:35;;;;;;;22.17;18.87;;;18.80;85.90;;;17.47;86.36;98179.22;5052601;28;20446;-82
2021/09/12 07:47:05;;;;;;;23.43;18.13;;;18.60;86.80;;;17.60;85.92;98180.72;5034673;28;20479;-81
2021/09/12 07:49:32;;;;;;;22.50;20.10;;;18.60;87.30;;;17.75;85.13;98186.34;5042232;28;20904;-80
2021/09/12 07:52:00;;;;;;;23.27;18.90;;;18.60;87.10;;;17.66;84.89;98183.25;5034538;28;20455;-89
2021/09/12 07:54:31;;;;;;;24.20;19.80;;;18.60;86.80;;;17.85;83.76;98174.69;5015301;28;20459;-87
2021/09/12 07:56:59;;;;;;;21.60;19.23;;;18.60;87.00;;;17.88;83.67;98185.09;5035130;28;20495;-87
2021/09/12 07:59:28;;;;;;;21.93;18.90;;;18.80;86.40;;;17.63;85.27;98202.06;5035212;28;20458;-88
2021/09/12 08:01:56;;;;;;;22.00;19.17;;;18.70;86.40;;;17.77;85.00;98202.50;5036624;28;20458;-87
2021/09/12 08:04:31;;;;;;;23.77;19.37;;;18.80;87.00;;;17.78;84.31;98202.22;5037335;28;20470;-87
2021/09/12 08:07:00;;;;;;;22.37;19.80;;;18.80;86.10;;;18.01;83.63;98205.72;5035598;28;20474;-87
2021/09/12 08:09:27;;;;;;;24.47;18.27;;;18.90;86.00;;;18.00;83.20;98204.06;5049841;28;20520;-88
2021/09/12 08:11:58;;;;;;;21.23;18.50;;;19.00;85.60;;;18.03;82.15;98195.38;5049839;28;20462;-89
2021/09/12 08:14:26;;;;;;;23.47;18.80;;;19.00;85.00;;;18.04;82.75;98210.69;5033471;28;20504;-87
2021/09/12 08:16:54;;;;;;;20.33;17.93;;;19.00;85.00;;;17.81;84.11;98192.69;5043696;28;20490;-88
2021/09/12 08:19:23;;;;;;;19.57;17.47;;;18.90;85.70;;;17.96;84.16;98219.31;5054052;28;20981;-88
2021/09/12 08:21:53;;;;;;;21.93;17.77;;;18.90;86.10;;;17.71;83.77;98190.69;5038179;28;20443;-87
2021/09/12 08:24:20;;;;;;;22.50;18.63;;;18.90;85.80;;;17.55;84.83;98209.66;5036258;28;20823;-87
2021/09/12 08:26:50;;;;;;;20.23;18.03;;;18.70;86.00;;;17.87;85.00;98223.63;5039046;28;20451;-87
2021/09/12 08:29:18;;;;;;;18.50;16.43;;;18.80;86.70;;;17.91;83.48;98227.47;5018698;28;20562;-87
2021/09/12 08:31:48;;;;;;;19.60;17.50;;;18.80;85.60;;;17.50;84.16;98204.09;5034155;28;20518;-88
2021/09/12 08:34:17;;;;;;;18.67;15.67;;;18.70;85.40;;;17.69;83.79;98226.44;5037394;28;20462;-90
2021/09/12 08:36:51;;;;;;;17.00;15.27;;;18.80;85.50;;;17.63;83.90;98227.47;5038347;28;20539;-85
2021/09/12 08:39:20;;;;;;;21.60;18.87;;;18.70;85.00;;;17.58;84.15;98232.88;5041921;28;20486;-82
2021/09/12 08:41:49;;;;;;;18.70;15.97;;;18.70;84.90;;;17.47;85.35;98234.66;5040008;28;20466;-82
2021/09/12 08:44:20;;;;;;;18.87;16.80;;;18.60;85.50;;;17.52;84.68;98242.94;5042942;28;20466;-82
2021/09/12 08:46:49;;;;;;;21.10;17.03;;;18.60;85.50;;;17.42;84.17;98226.44;5036599;28;20465;-84
2021/09/12 08:49:17;;;;;;;23.17;20.67;;;18.60;85.20;;;17.42;84.83;98251.00;5042835;28;20545;-83
2021/09/12 08:51:45;;;;;;;19.07;17.07;;;18.60;85.50;;;17.30;85.64;98244.84;5037883;28;20447;-86
2021/09/12 08:54:13;;;;;;;22.47;19.50;;;18.50;86.10;;;17.11;86.24;98247.88;5045373;28;20449;-84
2021/09/12 08:56:45;;;;;;;19.87;17.63;;;18.30;86.00;;;17.18;86.24;98237.59;5043059;28;20668;-83
2021/09/12 08:59:30;;;;;;;19.57;17.37;;;18.30;86.80;;;17.65;83.77;98249.91;5039115;28;20818;-84
2021/09/12 09:01:59;;;;;;;20.17;17.90;;;18.50;86.10;;;17.66;83.17;98240.63;5051900;28;20462;-85
2021/09/12 09:04:29;;;;;;;18.70;16.33;;;18.60;85.80;;;17.98;81.22;98255.44;5036787;28;20520;-87
2021/09/12 09:07:04;;;;;;;17.93;16.13;;;18.70;84.60;;;17.78;81.00;98245.13;5043104;28;20470;-88
2021/09/12 09:09:48;;;;;;;16.90;15.10;;;18.80;83.60;;;18.11;79.77;98249.56;5034050;28;20454;-85
2021/09/12 09:12:37;;;;;;;17.47;15.83;;;19.00;83.10;;;18.53;77.89;98249.91;5055178;28;20466;-86
2021/09/12 09:15:13;;;;;;;16.67;14.97;;;19.30;82.40;;;18.39;77.50;98239.41;5071500;28;20496;-87
2021/09/12 09:20:40;;;;;;;16.50;14.90;;;19.40;81.10;;;18.92;76.37;98241.44;5043717;28;20593;-86
2021/09/12 09:23:11;;;;;;;18.37;16.47;;;19.50;81.20;;;18.77;75.94;98217.50;5043166;28;21111;-87
2021/09/12 09:25:39;;;;;;;15.80;14.20;;;19.70;80.10;;;18.92;74.78;98219.53;5026864;28;20448;-86
2021/09/12 09:28:21;;;;;;;17.10;15.60;;;19.80;79.30;;;19.02;74.43;98229.72;5026526;28;20454;-88
2021/09/12 09:41:23;;;;;;;14.20;13.00;;;21.10;75.40;;;21.18;65.44;98215.69;5037624;28;20492;-88
2021/09/12 09:44:56;;;;;;;13.63;12.33;;;21.80;72.70;;;21.25;63.83;98209.91;5044707;28;20457;-90
2021/09/12 09:47:49;;;;;;;14.10;12.90;;;22.20;70.30;;;20.31;67.36;98182.66;5023900;28;20454;-88
2021/09/12 09:50:20;;;;;;;14.10;12.77;;;21.90;70.00;;;20.85;66.16;98207.84;5040834;28;20465;-87
2021/09/12 09:55:45;;;;;;;12.90;11.80;;;22.10;69.40;;;20.89;64.86;98186.97;5061296;28;20455;-90
2021/09/12 09:58:44;;;;;;;12.40;11.40;;;22.30;68.60;;;21.99;61.42;98207.31;5035887;28;20441;-85
2021/09/12 10:01:18;;;;;;;11.97;11.07;;;22.60;67.80;;;21.95;60.79;98206.25;5042028;28;20871;-84
2021/09/12 10:03:48;;;;;;;13.03;11.93;;;22.90;66.10;;;22.46;59.32;98217.94;5034974;28;20442;-85
2021/09/12 10:06:18;;;;;;;12.23;11.13;;;23.30;65.40;;;22.46;59.52;98195.94;5020693;28;20472;-85
2021/09/12 10:08:46;;;;;;;12.60;11.47;;;23.50;65.10;;;22.36;59.48;98194.91;5053800;28;20458;-85
2021/09/12 10:11:17;;;;;;;13.40;12.10;;;23.50;64.60;;;21.59;62.29;98206.44;5053760;28;20439;-85
2021/09/12 10:13:48;;;;;;;13.47;12.30;;;22.80;65.10;;;20.55;65.15;98200.44;5036717;28;20467;-85
2021/09/12 10:16:19;;;;;;;12.07;10.97;;;22.10;65.10;;;20.54;65.60;98196.88;5039186;28;20505;-87
2021/09/12 10:18:51;;;;;;;12.10;11.10;;;21.90;66.30;;;20.95;64.48;98185.03;5057619;28;20451;-85
2021/09/12 10:25:17;;;;;;;12.40;11.40;;;22.00;65.80;;;20.89;64.73;98186.97;5045493;28;20459;-87
2021/09/12 10:27:47;;;;;;;12.53;11.37;;;21.90;66.30;;;21.10;63.95;98189.63;5042446;28;20486;-85
2021/09/12 10:30:23;;;;;;;11.97;10.93;;;22.00;66.50;;;20.71;64.73;98171.06;5044318;28;20461;-85
2021/09/12 10:32:51;;;;;;;11.03;10.23;;;21.90;66.30;;;20.77;64.85;98178.19;5034851;28;20459;-81
2021/09/12 10:35:24;;;;;;;10.63;9.60;;;21.80;66.60;;;20.58;65.16;98189.75;5037628;28;20892;-81
2021/09/12 10:38:00;;;;;;;11.50;10.40;;;21.70;66.20;;;20.40;66.23;98191.13;5040171;28;20446;-81
2021/09/12 10:41:16;;;;;;;10.00;9.10;;;21.60;66.70;;;20.67;65.64;98177.09;5058899;28;20474;-81
2021/09/12 10:43:54;;;;;;;9.90;8.90;;;21.60;66.90;;;20.93;64.59;98189.97;5054631;28;20442;-80
2021/09/12 10:46:30;;;;;;;10.13;9.20;;;21.80;66.80;;;20.47;65.05;98186.22;5040801;28;20458;-80
2021/09/12 10:49:09;;;;;;;12.03;11.03;;;21.60;66.00;;;19.85;67.64;98191.63;5042298;28;20458;-80
2021/09/12 10:51:49;;;;;;;9.90;9.00;;;21.20;66.40;;;20.24;66.62;98180.19;5048196;28;20504;-83